Flemingsburg Junction, Kentucky
Current Conditions -  °F | °C
As of 8:55 AM on Saturday 25 Oct 2014 (Local Time) from KFGX Reporting Station
Scattered Clouds Scattered Clouds  
Wind Chill: 43°   Ceiling: Unl
Heat Index: 47°   Visibility: 10mi
Dew Point: 42°   Wind: 7mph
Humidity: 84%   Direction: 190°S
Pressure: 30.04"   Gusts: NA
Location:  38.436°N, 83.6931°W
Report Text: KFGX 251255Z AUTO 19006KT 10SM SCT085 08/06 A3004 RMK AO2 T00820056
Loading
Personal Weather Stations






























Interactive Weather Map
Tropical Storm Tracking
New forecast layout! Learn more

10-Day Weather Forecast

Advertisements
Track Severe Weather on mobile